sensor_id;sensor_type;location;lat;lon;timestamp;P1;durP1;ratioP1;P2;durP2;ratioP2
70667;SDS011;58242;51.250;-1.118;2023-02-04T00:00:12;2.85;;;2.63;;
70667;SDS011;58242;51.250;-1.118;2023-02-04T00:02:41;2.83;;;2.60;;
70667;SDS011;58242;51.250;-1.118;2023-02-04T00:05:07;2.83;;;2.72;;
70667;SDS011;58242;51.250;-1.118;2023-02-04T00:07:33;4.22;;;3.80;;
70667;SDS011;58242;51.250;-1.118;2023-02-04T00:09:59;2.92;;;2.70;;
70667;SDS011;58242;51.250;-1.118;2023-02-04T00:12:24;3.35;;;3.05;;
70667;SDS011;58242;51.250;-1.118;2023-02-04T00:14:49;2.97;;;2.72;;
70667;SDS011;58242;51.250;-1.118;2023-02-04T00:17:15;4.50;;;3.05;;
70667;SDS011;58242;51.250;-1.118;2023-02-04T00:19:40;3.15;;;2.95;;
70667;SDS011;58242;51.250;-1.118;2023-02-04T00:22:06;3.30;;;3.00;;
70667;SDS011;58242;51.250;-1.118;2023-02-04T00:24:35;4.88;;;3.58;;
70667;SDS011;58242;51.250;-1.118;2023-02-04T00:27:02;2.75;;;2.60;;
70667;SDS011;58242;51.250;-1.118;2023-02-04T00:29:29;3.35;;;2.90;;
70667;SDS011;58242;51.250;-1.118;2023-02-04T00:31:54;3.05;;;2.95;;
70667;SDS011;58242;51.250;-1.118;2023-02-04T00:34:20;3.03;;;2.92;;
70667;SDS011;58242;51.250;-1.118;2023-02-04T00:36:45;3.45;;;3.25;;
70667;SDS011;58242;51.250;-1.118;2023-02-04T00:39:11;2.72;;;2.63;;
70667;SDS011;58242;51.250;-1.118;2023-02-04T00:41:36;2.97;;;2.80;;
70667;SDS011;58242;51.250;-1.118;2023-02-04T00:44:02;2.80;;;2.60;;
70667;SDS011;58242;51.250;-1.118;2023-02-04T00:46:27;3.00;;;2.80;;
70667;SDS011;58242;51.250;-1.118;2023-02-04T00:48:53;3.50;;;3.30;;
70667;SDS011;58242;51.250;-1.118;2023-02-04T00:51:18;3.83;;;3.53;;
70667;SDS011;58242;51.250;-1.118;2023-02-04T00:53:43;3.15;;;2.95;;
70667;SDS011;58242;51.250;-1.118;2023-02-04T00:56:08;3.45;;;3.30;;
70667;SDS011;58242;51.250;-1.118;2023-02-04T00:58:34;3.58;;;3.28;;
70667;SDS011;58242;51.250;-1.118;2023-02-04T01:00:59;3.97;;;3.67;;
70667;SDS011;58242;51.250;-1.118;2023-02-04T01:03:24;3.60;;;3.40;;
70667;SDS011;58242;51.250;-1.118;2023-02-04T01:05:50;3.53;;;3.33;;
70667;SDS011;58242;51.250;-1.118;2023-02-04T01:08:15;3.90;;;3.60;;
70667;SDS011;58242;51.250;-1.118;2023-02-04T01:10:40;3.30;;;3.20;;
70667;SDS011;58242;51.250;-1.118;2023-02-04T01:13:06;3.50;;;3.30;;
70667;SDS011;58242;51.250;-1.118;2023-02-04T01:15:32;3.47;;;3.28;;
70667;SDS011;58242;51.250;-1.118;2023-02-04T01:17:58;3.22;;;3.05;;
70667;SDS011;58242;51.250;-1.118;2023-02-04T01:20:24;3.20;;;3.00;;
70667;SDS011;58242;51.250;-1.118;2023-02-04T01:22:49;3.80;;;3.60;;
70667;SDS011;58242;51.250;-1.118;2023-02-04T01:25:14;3.05;;;2.95;;
70667;SDS011;58242;51.250;-1.118;2023-02-04T01:27:40;2.97;;;2.88;;
70667;SDS011;58242;51.250;-1.118;2023-02-04T01:30:06;3.13;;;3.03;;
70667;SDS011;58242;51.250;-1.118;2023-02-04T01:32:32;3.80;;;3.50;;
70667;SDS011;58242;51.250;-1.118;2023-02-04T01:34:58;3.33;;;3.22;;
70667;SDS011;58242;51.250;-1.118;2023-02-04T01:37:23;3.33;;;3.13;;
70667;SDS011;58242;51.250;-1.118;2023-02-04T01:39:48;3.20;;;2.90;;
70667;SDS011;58242;51.250;-1.118;2023-02-04T01:42:14;3.10;;;3.00;;
70667;SDS011;58242;51.250;-1.118;2023-02-04T01:44:39;3.60;;;3.40;;
70667;SDS011;58242;51.250;-1.118;2023-02-04T01:47:04;3.15;;;3.05;;
70667;SDS011;58242;51.250;-1.118;2023-02-04T01:49:30;3.08;;;2.88;;
70667;SDS011;58242;51.250;-1.118;2023-02-04T01:51:55;3.10;;;3.00;;
70667;SDS011;58242;51.250;-1.118;2023-02-04T01:54:21;3.10;;;3.00;;
70667;SDS011;58242;51.250;-1.118;2023-02-04T01:56:47;3.47;;;3.28;;
70667;SDS011;58242;51.250;-1.118;2023-02-04T01:59:15;3.43;;;3.23;;
70667;SDS011;58242;51.250;-1.118;2023-02-04T02:04:10;4.18;;;2.80;;
70667;SDS011;58242;51.250;-1.118;2023-02-04T02:06:38;3.13;;;2.92;;
70667;SDS011;58242;51.250;-1.118;2023-02-04T02:09:07;3.42;;;3.13;;
70667;SDS011;58242;51.250;-1.118;2023-02-04T02:11:32;2.80;;;2.70;;
70667;SDS011;58242;51.250;-1.118;2023-02-04T02:13:58;3.25;;;3.05;;
70667;SDS011;58242;51.250;-1.118;2023-02-04T02:16:24;2.80;;;2.70;;
70667;SDS011;58242;51.250;-1.118;2023-02-04T02:18:49;2.95;;;2.85;;
70667;SDS011;58242;51.250;-1.118;2023-02-04T02:21:18;3.40;;;3.15;;
70667;SDS011;58242;51.250;-1.118;2023-02-04T02:23:51;3.10;;;2.80;;
70667;SDS011;58242;51.250;-1.118;2023-02-04T02:26:18;3.05;;;2.85;;
70667;SDS011;58242;51.250;-1.118;2023-02-04T02:28:45;3.20;;;3.10;;
70667;SDS011;58242;51.250;-1.118;2023-02-04T02:31:12;3.53;;;3.33;;
70667;SDS011;58242;51.250;-1.118;2023-02-04T02:33:38;3.97;;;3.67;;
70667;SDS011;58242;51.250;-1.118;2023-02-04T02:36:04;3.45;;;3.25;;
70667;SDS011;58242;51.250;-1.118;2023-02-04T02:38:30;3.28;;;3.08;;
70667;SDS011;58242;51.250;-1.118;2023-02-04T02:40:56;2.90;;;2.80;;
70667;SDS011;58242;51.250;-1.118;2023-02-04T02:43:22;3.50;;;3.30;;
70667;SDS011;58242;51.250;-1.118;2023-02-04T02:45:50;3.00;;;2.90;;
70667;SDS011;58242;51.250;-1.118;2023-02-04T02:48:16;3.30;;;3.10;;
70667;SDS011;58242;51.250;-1.118;2023-02-04T02:50:42;3.17;;;3.08;;
70667;SDS011;58242;51.250;-1.118;2023-02-04T02:53:11;3.15;;;3.05;;
70667;SDS011;58242;51.250;-1.118;2023-02-04T02:55:38;3.17;;;3.08;;
70667;SDS011;58242;51.250;-1.118;2023-02-04T02:58:04;3.13;;;3.03;;
70667;SDS011;58242;51.250;-1.118;2023-02-04T03:00:36;3.20;;;3.10;;
70667;SDS011;58242;51.250;-1.118;2023-02-04T03:03:06;3.42;;;3.05;;
70667;SDS011;58242;51.250;-1.118;2023-02-04T03:05:36;3.17;;;2.97;;
70667;SDS011;58242;51.250;-1.118;2023-02-04T03:08:05;3.28;;;3.08;;
70667;SDS011;58242;51.250;-1.118;2023-02-04T03:10:31;3.15;;;2.97;;
70667;SDS011;58242;51.250;-1.118;2023-02-04T03:12:57;3.20;;;3.00;;
70667;SDS011;58242;51.250;-1.118;2023-02-04T03:15:23;3.20;;;3.10;;
70667;SDS011;58242;51.250;-1.118;2023-02-04T03:17:49;3.00;;;2.90;;
70667;SDS011;58242;51.250;-1.118;2023-02-04T03:20:20;3.38;;;3.22;;
70667;SDS011;58242;51.250;-1.118;2023-02-04T03:22:46;3.00;;;2.90;;
70667;SDS011;58242;51.250;-1.118;2023-02-04T03:25:12;3.30;;;3.20;;
70667;SDS011;58242;51.250;-1.118;2023-02-04T03:27:37;2.95;;;2.85;;
70667;SDS011;58242;51.250;-1.118;2023-02-04T03:30:03;2.90;;;2.80;;
70667;SDS011;58242;51.250;-1.118;2023-02-04T03:32:28;3.00;;;2.90;;
70667;SDS011;58242;51.250;-1.118;2023-02-04T03:34:54;3.22;;;3.03;;
70667;SDS011;58242;51.250;-1.118;2023-02-04T03:37:19;3.42;;;3.20;;
70667;SDS011;58242;51.250;-1.118;2023-02-04T03:39:44;3.05;;;2.90;;
70667;SDS011;58242;51.250;-1.118;2023-02-04T03:42:09;3.10;;;3.00;;
70667;SDS011;58242;51.250;-1.118;2023-02-04T03:44:35;3.08;;;2.97;;
70667;SDS011;58242;51.250;-1.118;2023-02-04T03:47:00;3.22;;;3.03;;
70667;SDS011;58242;51.250;-1.118;2023-02-04T03:49:26;2.90;;;2.80;;
70667;SDS011;58242;51.250;-1.118;2023-02-04T03:51:52;3.55;;;3.25;;
70667;SDS011;58242;51.250;-1.118;2023-02-04T03:54:17;3.60;;;3.40;;
70667;SDS011;58242;51.250;-1.118;2023-02-04T03:56:43;2.90;;;2.80;;
70667;SDS011;58242;51.250;-1.118;2023-02-04T03:59:08;2.85;;;2.75;;
70667;SDS011;58242;51.250;-1.118;2023-02-04T04:01:33;3.10;;;2.90;;
70667;SDS011;58242;51.250;-1.118;2023-02-04T04:03:59;3.25;;;3.15;;
70667;SDS011;58242;51.250;-1.118;2023-02-04T04:06:24;3.40;;;3.20;;
70667;SDS011;58242;51.250;-1.118;2023-02-04T04:08:49;3.78;;;3.50;;
70667;SDS011;58242;51.250;-1.118;2023-02-04T04:11:15;3.63;;;3.33;;
70667;SDS011;58242;51.250;-1.118;2023-02-04T04:13:40;3.50;;;3.38;;
70667;SDS011;58242;51.250;-1.118;2023-02-04T04:16:06;3.60;;;3.30;;
70667;SDS011;58242;51.250;-1.118;2023-02-04T04:18:32;3.42;;;3.22;;
70667;SDS011;58242;51.250;-1.118;2023-02-04T04:20:58;3.55;;;3.35;;
70667;SDS011;58242;51.250;-1.118;2023-02-04T04:23:24;3.40;;;3.22;;
70667;SDS011;58242;51.250;-1.118;2023-02-04T04:25:49;3.33;;;3.13;;
70667;SDS011;58242;51.250;-1.118;2023-02-04T04:28:15;3.00;;;2.90;;
70667;SDS011;58242;51.250;-1.118;2023-02-04T04:30:40;4.03;;;3.60;;
70667;SDS011;58242;51.250;-1.118;2023-02-04T04:33:06;3.50;;;3.30;;
70667;SDS011;58242;51.250;-1.118;2023-02-04T04:35:31;3.63;;;3.42;;
70667;SDS011;58242;51.250;-1.118;2023-02-04T04:37:57;3.47;;;3.28;;
70667;SDS011;58242;51.250;-1.118;2023-02-04T04:40:22;3.45;;;3.13;;
70667;SDS011;58242;51.250;-1.118;2023-02-04T04:42:47;3.55;;;3.35;;
70667;SDS011;58242;51.250;-1.118;2023-02-04T04:45:13;3.75;;;3.55;;
70667;SDS011;58242;51.250;-1.118;2023-02-04T04:47:38;3.95;;;3.63;;
70667;SDS011;58242;51.250;-1.118;2023-02-04T04:50:03;3.22;;;3.03;;
70667;SDS011;58242;51.250;-1.118;2023-02-04T04:52:29;3.47;;;3.25;;
70667;SDS011;58242;51.250;-1.118;2023-02-04T04:54:55;3.42;;;3.22;;
70667;SDS011;58242;51.250;-1.118;2023-02-04T04:57:20;3.40;;;3.20;;
70667;SDS011;58242;51.250;-1.118;2023-02-04T04:59:45;3.20;;;3.10;;
70667;SDS011;58242;51.250;-1.118;2023-02-04T05:02:10;3.60;;;3.40;;
70667;SDS011;58242;51.250;-1.118;2023-02-04T05:04:36;3.20;;;3.10;;
70667;SDS011;58242;51.250;-1.118;2023-02-04T05:07:01;3.00;;;2.90;;
70667;SDS011;58242;51.250;-1.118;2023-02-04T05:09:26;3.08;;;2.90;;
70667;SDS011;58242;51.250;-1.118;2023-02-04T05:11:52;3.10;;;2.90;;
70667;SDS011;58242;51.250;-1.118;2023-02-04T05:14:18;3.08;;;2.88;;
70667;SDS011;58242;51.250;-1.118;2023-02-04T05:16:43;3.60;;;3.30;;
70667;SDS011;58242;51.250;-1.118;2023-02-04T05:19:08;3.67;;;3.38;;
70667;SDS011;58242;51.250;-1.118;2023-02-04T05:21:34;3.47;;;3.30;;
70667;SDS011;58242;51.250;-1.118;2023-02-04T05:23:59;3.60;;;3.40;;
70667;SDS011;58242;51.250;-1.118;2023-02-04T05:26:24;3.42;;;3.17;;
70667;SDS011;58242;51.250;-1.118;2023-02-04T05:28:51;3.40;;;3.20;;
70667;SDS011;58242;51.250;-1.118;2023-02-04T05:31:16;3.25;;;3.03;;
70667;SDS011;58242;51.250;-1.118;2023-02-04T05:33:41;3.38;;;3.08;;
70667;SDS011;58242;51.250;-1.118;2023-02-04T05:36:07;3.03;;;2.88;;
70667;SDS011;58242;51.250;-1.118;2023-02-04T05:38:32;3.25;;;2.95;;
70667;SDS011;58242;51.250;-1.118;2023-02-04T05:40:57;3.03;;;2.90;;
70667;SDS011;58242;51.250;-1.118;2023-02-04T05:43:23;2.85;;;2.65;;
70667;SDS011;58242;51.250;-1.118;2023-02-04T05:45:48;2.85;;;2.75;;
70667;SDS011;58242;51.250;-1.118;2023-02-04T05:48:13;3.17;;;2.92;;
70667;SDS011;58242;51.250;-1.118;2023-02-04T05:50:38;3.15;;;2.85;;
70667;SDS011;58242;51.250;-1.118;2023-02-04T05:53:04;2.78;;;2.67;;
70667;SDS011;58242;51.250;-1.118;2023-02-04T05:55:29;3.15;;;2.47;;
70667;SDS011;58242;51.250;-1.118;2023-02-04T05:57:54;2.50;;;2.40;;
70667;SDS011;58242;51.250;-1.118;2023-02-04T06:00:20;2.50;;;2.33;;
70667;SDS011;58242;51.250;-1.118;2023-02-04T06:02:45;2.80;;;2.70;;
70667;SDS011;58242;51.250;-1.118;2023-02-04T06:05:11;2.25;;;2.22;;
70667;SDS011;58242;51.250;-1.118;2023-02-04T06:07:36;3.40;;;2.65;;
70667;SDS011;58242;51.250;-1.118;2023-02-04T06:10:01;2.50;;;2.40;;
70667;SDS011;58242;51.250;-1.118;2023-02-04T06:12:27;2.60;;;2.50;;
70667;SDS011;58242;51.250;-1.118;2023-02-04T06:14:52;2.47;;;2.38;;
70667;SDS011;58242;51.250;-1.118;2023-02-04T06:17:18;2.38;;;2.17;;
70667;SDS011;58242;51.250;-1.118;2023-02-04T06:19:43;2.30;;;2.10;;
70667;SDS011;58242;51.250;-1.118;2023-02-04T06:22:08;2.95;;;2.75;;
70667;SDS011;58242;51.250;-1.118;2023-02-04T06:24:34;2.45;;;2.35;;
70667;SDS011;58242;51.250;-1.118;2023-02-04T06:26:59;2.40;;;2.30;;
70667;SDS011;58242;51.250;-1.118;2023-02-04T06:29:24;2.22;;;2.15;;
70667;SDS011;58242;51.250;-1.118;2023-02-04T06:31:49;2.72;;;2.55;;
70667;SDS011;58242;51.250;-1.118;2023-02-04T06:34:15;2.10;;;2.10;;
70667;SDS011;58242;51.250;-1.118;2023-02-04T06:36:40;3.00;;;2.80;;
70667;SDS011;58242;51.250;-1.118;2023-02-04T06:39:05;2.60;;;2.40;;
70667;SDS011;58242;51.250;-1.118;2023-02-04T06:41:31;2.45;;;2.35;;
70667;SDS011;58242;51.250;-1.118;2023-02-04T06:43:56;2.40;;;2.30;;
70667;SDS011;58242;51.250;-1.118;2023-02-04T06:46:21;2.75;;;2.55;;
70667;SDS011;58242;51.250;-1.118;2023-02-04T06:48:47;2.80;;;2.70;;
70667;SDS011;58242;51.250;-1.118;2023-02-04T06:51:12;2.83;;;2.72;;
70667;SDS011;58242;51.250;-1.118;2023-02-04T06:53:37;2.58;;;2.40;;
70667;SDS011;58242;51.250;-1.118;2023-02-04T06:56:04;3.03;;;2.58;;
70667;SDS011;58242;51.250;-1.118;2023-02-04T06:58:29;2.50;;;2.40;;
70667;SDS011;58242;51.250;-1.118;2023-02-04T07:00:56;2.42;;;2.33;;
70667;SDS011;58242;51.250;-1.118;2023-02-04T07:03:21;2.55;;;2.45;;
70667;SDS011;58242;51.250;-1.118;2023-02-04T07:05:46;2.10;;;2.00;;
70667;SDS011;58242;51.250;-1.118;2023-02-04T07:08:11;2.00;;;1.90;;
70667;SDS011;58242;51.250;-1.118;2023-02-04T07:10:37;2.33;;;2.10;;
70667;SDS011;58242;51.250;-1.118;2023-02-04T07:13:02;2.58;;;2.47;;
70667;SDS011;58242;51.250;-1.118;2023-02-04T07:15:28;2.50;;;2.40;;
70667;SDS011;58242;51.250;-1.118;2023-02-04T07:17:53;2.53;;;2.42;;
70667;SDS011;58242;51.250;-1.118;2023-02-04T07:20:18;2.10;;;2.10;;
70667;SDS011;58242;51.250;-1.118;2023-02-04T07:22:43;2.10;;;2.00;;
70667;SDS011;58242;51.250;-1.118;2023-02-04T07:25:09;2.67;;;2.58;;
70667;SDS011;58242;51.250;-1.118;2023-02-04T07:27:35;2.60;;;2.40;;
70667;SDS011;58242;51.250;-1.118;2023-02-04T07:30:00;2.70;;;2.47;;
70667;SDS011;58242;51.250;-1.118;2023-02-04T07:32:26;2.40;;;2.30;;
70667;SDS011;58242;51.250;-1.118;2023-02-04T07:34:57;2.25;;;2.20;;
70667;SDS011;58242;51.250;-1.118;2023-02-04T07:37:23;2.38;;;2.33;;
70667;SDS011;58242;51.250;-1.118;2023-02-04T07:39:49;2.42;;;2.22;;
70667;SDS011;58242;51.250;-1.118;2023-02-04T07:42:14;2.28;;;2.17;;
70667;SDS011;58242;51.250;-1.118;2023-02-04T07:44:39;2.60;;;2.50;;
70667;SDS011;58242;51.250;-1.118;2023-02-04T07:47:04;3.45;;;2.70;;
70667;SDS011;58242;51.250;-1.118;2023-02-04T07:49:30;2.65;;;2.53;;
70667;SDS011;58242;51.250;-1.118;2023-02-04T07:51:55;2.30;;;2.20;;
70667;SDS011;58242;51.250;-1.118;2023-02-04T07:54:21;2.72;;;2.45;;
70667;SDS011;58242;51.250;-1.118;2023-02-04T07:56:47;2.72;;;2.53;;
70667;SDS011;58242;51.250;-1.118;2023-02-04T07:59:12;2.50;;;2.30;;
70667;SDS011;58242;51.250;-1.118;2023-02-04T08:01:37;2.13;;;2.03;;
70667;SDS011;58242;51.250;-1.118;2023-02-04T08:04:03;2.63;;;2.53;;
70667;SDS011;58242;51.250;-1.118;2023-02-04T08:06:28;2.42;;;2.30;;
70667;SDS011;58242;51.250;-1.118;2023-02-04T08:08:54;3.15;;;2.10;;
70667;SDS011;58242;51.250;-1.118;2023-02-04T08:11:19;2.40;;;2.20;;
70667;SDS011;58242;51.250;-1.118;2023-02-04T08:13:44;2.40;;;2.25;;
70667;SDS011;58242;51.250;-1.118;2023-02-04T08:16:10;2.50;;;2.33;;
70667;SDS011;58242;51.250;-1.118;2023-02-04T08:18:35;2.10;;;2.00;;
70667;SDS011;58242;51.250;-1.118;2023-02-04T08:21:00;2.55;;;2.40;;
70667;SDS011;58242;51.250;-1.118;2023-02-04T08:23:27;2.00;;;1.95;;
70667;SDS011;58242;51.250;-1.118;2023-02-04T08:25:52;2.42;;;2.33;;
70667;SDS011;58242;51.250;-1.118;2023-02-04T08:28:17;2.65;;;2.53;;
70667;SDS011;58242;51.250;-1.118;2023-02-04T08:30:43;2.13;;;2.00;;
70667;SDS011;58242;51.250;-1.118;2023-02-04T08:33:08;2.28;;;2.17;;
70667;SDS011;58242;51.250;-1.118;2023-02-04T08:35:34;2.45;;;2.25;;
70667;SDS011;58242;51.250;-1.118;2023-02-04T08:37:59;2.40;;;2.20;;
70667;SDS011;58242;51.250;-1.118;2023-02-04T08:40:24;3.33;;;2.00;;
70667;SDS011;58242;51.250;-1.118;2023-02-04T08:42:50;1.90;;;1.90;;
70667;SDS011;58242;51.250;-1.118;2023-02-04T08:45:15;2.50;;;2.30;;
70667;SDS011;58242;51.250;-1.118;2023-02-04T08:47:40;2.40;;;2.30;;
70667;SDS011;58242;51.250;-1.118;2023-02-04T08:50:06;2.10;;;2.10;;
70667;SDS011;58242;51.250;-1.118;2023-02-04T08:52:31;2.40;;;2.20;;
70667;SDS011;58242;51.250;-1.118;2023-02-04T08:54:57;2.65;;;2.28;;
70667;SDS011;58242;51.250;-1.118;2023-02-04T08:57:22;2.40;;;2.30;;
70667;SDS011;58242;51.250;-1.118;2023-02-04T08:59:47;2.42;;;2.00;;
70667;SDS011;58242;51.250;-1.118;2023-02-04T09:02:13;2.50;;;2.40;;
70667;SDS011;58242;51.250;-1.118;2023-02-04T09:04:38;2.85;;;2.65;;
70667;SDS011;58242;51.250;-1.118;2023-02-04T09:07:03;2.20;;;2.10;;
70667;SDS011;58242;51.250;-1.118;2023-02-04T09:09:28;2.20;;;2.10;;
70667;SDS011;58242;51.250;-1.118;2023-02-04T09:11:54;2.50;;;2.40;;
70667;SDS011;58242;51.250;-1.118;2023-02-04T09:14:19;2.63;;;2.53;;
70667;SDS011;58242;51.250;-1.118;2023-02-04T09:16:44;3.00;;;2.03;;
70667;SDS011;58242;51.250;-1.118;2023-02-04T09:19:10;2.33;;;2.22;;
70667;SDS011;58242;51.250;-1.118;2023-02-04T09:21:37;1.90;;;1.90;;
70667;SDS011;58242;51.250;-1.118;2023-02-04T09:24:02;2.20;;;2.10;;
70667;SDS011;58242;51.250;-1.118;2023-02-04T09:26:28;3.65;;;2.03;;
70667;SDS011;58242;51.250;-1.118;2023-02-04T09:28:53;2.17;;;2.08;;
70667;SDS011;58242;51.250;-1.118;2023-02-04T09:31:19;10.77;;;2.70;;
70667;SDS011;58242;51.250;-1.118;2023-02-04T09:33:44;2.47;;;2.38;;
70667;SDS011;58242;51.250;-1.118;2023-02-04T09:36:09;2.33;;;2.22;;
70667;SDS011;58242;51.250;-1.118;2023-02-04T09:38:35;3.92;;;2.67;;
70667;SDS011;58242;51.250;-1.118;2023-02-04T09:41:01;2.20;;;2.10;;
70667;SDS011;58242;51.250;-1.118;2023-02-04T09:43:31;2.22;;;2.00;;
70667;SDS011;58242;51.250;-1.118;2023-02-04T09:46:00;2.50;;;2.38;;
70667;SDS011;58242;51.250;-1.118;2023-02-04T09:48:26;2.75;;;2.60;;
70667;SDS011;58242;51.250;-1.118;2023-02-04T09:50:52;3.60;;;1.80;;
70667;SDS011;58242;51.250;-1.118;2023-02-04T09:53:28;2.20;;;2.00;;
70667;SDS011;58242;51.250;-1.118;2023-02-04T09:55:54;2.13;;;2.03;;
70667;SDS011;58242;51.250;-1.118;2023-02-04T09:58:20;1.73;;;1.63;;
70667;SDS011;58242;51.250;-1.118;2023-02-04T10:01:10;2.20;;;2.08;;
70667;SDS011;58242;51.250;-1.118;2023-02-04T10:03:40;2.53;;;2.42;;
70667;SDS011;58242;51.250;-1.118;2023-02-04T10:06:13;2.25;;;2.15;;
70667;SDS011;58242;51.250;-1.118;2023-02-04T10:08:43;2.42;;;2.17;;
70667;SDS011;58242;51.250;-1.118;2023-02-04T10:11:10;2.63;;;2.42;;
70667;SDS011;58242;51.250;-1.118;2023-02-04T10:13:38;2.55;;;2.35;;
70667;SDS011;58242;51.250;-1.118;2023-02-04T10:16:14;3.08;;;2.20;;
70667;SDS011;58242;51.250;-1.118;2023-02-04T10:18:41;2.40;;;2.30;;
70667;SDS011;58242;51.250;-1.118;2023-02-04T10:23:38;2.40;;;2.30;;
70667;SDS011;58242;51.250;-1.118;2023-02-04T10:26:03;2.50;;;2.40;;
70667;SDS011;58242;51.250;-1.118;2023-02-04T10:28:35;2.85;;;2.40;;
70667;SDS011;58242;51.250;-1.118;2023-02-04T10:31:01;2.35;;;2.30;;
70667;SDS011;58242;51.250;-1.118;2023-02-04T10:33:26;2.35;;;2.15;;
70667;SDS011;58242;51.250;-1.118;2023-02-04T10:35:53;2.30;;;2.20;;
70667;SDS011;58242;51.250;-1.118;2023-02-04T10:38:20;2.50;;;2.40;;
70667;SDS011;58242;51.250;-1.118;2023-02-04T10:40:46;2.25;;;2.15;;
70667;SDS011;58242;51.250;-1.118;2023-02-04T10:43:15;2.40;;;2.30;;
70667;SDS011;58242;51.250;-1.118;2023-02-04T10:45:46;2.33;;;2.17;;
70667;SDS011;58242;51.250;-1.118;2023-02-04T10:48:22;2.08;;;2.05;;
70667;SDS011;58242;51.250;-1.118;2023-02-04T10:50:47;2.10;;;2.00;;
70667;SDS011;58242;51.250;-1.118;2023-02-04T10:53:18;2.70;;;2.50;;
70667;SDS011;58242;51.250;-1.118;2023-02-04T10:56:04;2.38;;;2.28;;
70667;SDS011;58242;51.250;-1.118;2023-02-04T10:58:35;3.17;;;2.67;;
70667;SDS011;58242;51.250;-1.118;2023-02-04T11:01:00;2.03;;;1.85;;
70667;SDS011;58242;51.250;-1.118;2023-02-04T11:03:27;2.38;;;2.28;;
70667;SDS011;58242;51.250;-1.118;2023-02-04T11:05:57;2.70;;;2.17;;
70667;SDS011;58242;51.250;-1.118;2023-02-04T11:08:31;2.15;;;1.85;;
70667;SDS011;58242;51.250;-1.118;2023-02-04T11:13:41;2.22;;;2.08;;
70667;SDS011;58242;51.250;-1.118;2023-02-04T11:16:25;2.10;;;2.03;;
70667;SDS011;58242;51.250;-1.118;2023-02-04T11:18:58;1.92;;;1.83;;
70667;SDS011;58242;51.250;-1.118;2023-02-04T11:24:19;2.33;;;2.22;;
70667;SDS011;58242;51.250;-1.118;2023-02-04T11:26:48;2.30;;;2.20;;
70667;SDS011;58242;51.250;-1.118;2023-02-04T11:29:33;1.70;;;1.70;;
70667;SDS011;58242;51.250;-1.118;2023-02-04T11:32:36;2.17;;;2.08;;
70667;SDS011;58242;51.250;-1.118;2023-02-04T11:35:05;2.20;;;2.10;;
70667;SDS011;58242;51.250;-1.118;2023-02-04T11:37:44;2.40;;;2.30;;
70667;SDS011;58242;51.250;-1.118;2023-02-04T11:40:52;2.00;;;1.90;;
70667;SDS011;58242;51.250;-1.118;2023-02-04T11:45:31;2.25;;;2.10;;
70667;SDS011;58242;51.250;-1.118;2023-02-04T11:47:59;2.03;;;1.92;;
70667;SDS011;58242;51.250;-1.118;2023-02-04T11:50:31;2.15;;;2.05;;
70667;SDS011;58242;51.250;-1.118;2023-02-04T11:52:58;2.35;;;2.00;;
70667;SDS011;58242;51.250;-1.118;2023-02-04T11:55:26;2.03;;;1.92;;
70667;SDS011;58242;51.250;-1.118;2023-02-04T11:57:53;2.10;;;2.00;;
70667;SDS011;58242;51.250;-1.118;2023-02-04T12:00:21;2.22;;;2.05;;
70667;SDS011;58242;51.250;-1.118;2023-02-04T12:02:57;3.13;;;2.00;;
70667;SDS011;58242;51.250;-1.118;2023-02-04T12:05:35;2.15;;;2.05;;
70667;SDS011;58242;51.250;-1.118;2023-02-04T12:08:11;1.80;;;1.80;;
70667;SDS011;58242;51.250;-1.118;2023-02-04T12:10:38;2.10;;;2.00;;
70667;SDS011;58242;51.250;-1.118;2023-02-04T12:13:11;3.00;;;2.30;;
70667;SDS011;58242;51.250;-1.118;2023-02-04T12:15:40;2.22;;;1.98;;
70667;SDS011;58242;51.250;-1.118;2023-02-04T12:18:06;2.80;;;2.60;;
70667;SDS011;58242;51.250;-1.118;2023-02-04T12:20:36;2.28;;;2.10;;
70667;SDS011;58242;51.250;-1.118;2023-02-04T12:23:02;2.20;;;2.10;;
70667;SDS011;58242;51.250;-1.118;2023-02-04T12:25:28;2.00;;;1.90;;
70667;SDS011;58242;51.250;-1.118;2023-02-04T12:27:54;2.22;;;1.98;;
70667;SDS011;58242;51.250;-1.118;2023-02-04T12:30:21;2.22;;;1.98;;
70667;SDS011;58242;51.250;-1.118;2023-02-04T12:32:47;1.80;;;1.70;;
70667;SDS011;58242;51.250;-1.118;2023-02-04T12:35:12;2.72;;;2.50;;
70667;SDS011;58242;51.250;-1.118;2023-02-04T12:37:38;2.47;;;2.28;;
70667;SDS011;58242;51.250;-1.118;2023-02-04T12:40:03;2.30;;;2.10;;
70667;SDS011;58242;51.250;-1.118;2023-02-04T12:42:29;2.30;;;2.20;;
70667;SDS011;58242;51.250;-1.118;2023-02-04T12:44:54;2.38;;;2.28;;
70667;SDS011;58242;51.250;-1.118;2023-02-04T12:47:20;3.08;;;2.88;;
70667;SDS011;58242;51.250;-1.118;2023-02-04T12:49:45;2.42;;;2.22;;
70667;SDS011;58242;51.250;-1.118;2023-02-04T12:52:10;2.00;;;1.90;;
70667;SDS011;58242;51.250;-1.118;2023-02-04T12:54:36;2.60;;;2.40;;
70667;SDS011;58242;51.250;-1.118;2023-02-04T12:57:01;2.75;;;2.58;;
70667;SDS011;58242;51.250;-1.118;2023-02-04T12:59:27;1.80;;;1.70;;
70667;SDS011;58242;51.250;-1.118;2023-02-04T13:01:54;2.40;;;2.22;;
70667;SDS011;58242;51.250;-1.118;2023-02-04T13:04:20;7.90;;;2.55;;
70667;SDS011;58242;51.250;-1.118;2023-02-04T13:06:45;2.03;;;1.92;;
70667;SDS011;58242;51.250;-1.118;2023-02-04T13:09:10;2.28;;;2.17;;
70667;SDS011;58242;51.250;-1.118;2023-02-04T13:11:36;2.42;;;2.10;;
70667;SDS011;58242;51.250;-1.118;2023-02-04T13:14:01;1.75;;;1.65;;
70667;SDS011;58242;51.250;-1.118;2023-02-04T13:16:26;2.25;;;2.15;;
70667;SDS011;58242;51.250;-1.118;2023-02-04T13:18:51;1.90;;;1.80;;
70667;SDS011;58242;51.250;-1.118;2023-02-04T13:21:17;2.67;;;2.20;;
70667;SDS011;58242;51.250;-1.118;2023-02-04T13:23:42;2.45;;;2.20;;
70667;SDS011;58242;51.250;-1.118;2023-02-04T13:26:08;2.17;;;2.08;;
70667;SDS011;58242;51.250;-1.118;2023-02-04T13:28:36;2.03;;;1.92;;
70667;SDS011;58242;51.250;-1.118;2023-02-04T13:31:01;2.30;;;2.20;;
70667;SDS011;58242;51.250;-1.118;2023-02-04T13:33:27;2.00;;;1.90;;
70667;SDS011;58242;51.250;-1.118;2023-02-04T13:35:53;2.28;;;2.08;;
70667;SDS011;58242;51.250;-1.118;2023-02-04T13:38:18;2.75;;;2.30;;
70667;SDS011;58242;51.250;-1.118;2023-02-04T13:40:43;1.92;;;1.92;;
70667;SDS011;58242;51.250;-1.118;2023-02-04T13:43:09;2.20;;;2.10;;
70667;SDS011;58242;51.250;-1.118;2023-02-04T13:45:34;2.00;;;1.90;;
70667;SDS011;58242;51.250;-1.118;2023-02-04T13:47:59;1.83;;;1.80;;
70667;SDS011;58242;51.250;-1.118;2023-02-04T13:50:25;2.13;;;1.92;;
70667;SDS011;58242;51.250;-1.118;2023-02-04T13:52:50;1.95;;;1.85;;
70667;SDS011;58242;51.250;-1.118;2023-02-04T13:55:15;2.00;;;1.90;;
70667;SDS011;58242;51.250;-1.118;2023-02-04T13:57:41;2.17;;;2.08;;
70667;SDS011;58242;51.250;-1.118;2023-02-04T14:00:06;6.95;;;2.25;;
70667;SDS011;58242;51.250;-1.118;2023-02-04T14:02:33;2.20;;;2.08;;
70667;SDS011;58242;51.250;-1.118;2023-02-04T14:04:59;2.00;;;1.90;;
70667;SDS011;58242;51.250;-1.118;2023-02-04T14:07:24;2.20;;;2.10;;
70667;SDS011;58242;51.250;-1.118;2023-02-04T14:09:49;2.38;;;2.28;;
70667;SDS011;58242;51.250;-1.118;2023-02-04T14:12:15;2.40;;;2.30;;
70667;SDS011;58242;51.250;-1.118;2023-02-04T14:14:40;2.75;;;2.55;;
70667;SDS011;58242;51.250;-1.118;2023-02-04T14:17:05;4.97;;;4.25;;
70667;SDS011;58242;51.250;-1.118;2023-02-04T14:19:31;3.63;;;3.33;;
70667;SDS011;58242;51.250;-1.118;2023-02-04T14:21:57;2.90;;;2.70;;
70667;SDS011;58242;51.250;-1.118;2023-02-04T14:24:22;2.40;;;2.30;;
70667;SDS011;58242;51.250;-1.118;2023-02-04T14:26:48;3.10;;;2.28;;
70667;SDS011;58242;51.250;-1.118;2023-02-04T14:29:14;2.35;;;2.25;;
70667;SDS011;58242;51.250;-1.118;2023-02-04T14:31:39;2.45;;;2.25;;
70667;SDS011;58242;51.250;-1.118;2023-02-04T14:34:05;2.17;;;2.08;;
70667;SDS011;58242;51.250;-1.118;2023-02-04T14:36:30;2.03;;;1.92;;
70667;SDS011;58242;51.250;-1.118;2023-02-04T14:38:56;2.08;;;1.98;;
70667;SDS011;58242;51.250;-1.118;2023-02-04T14:41:21;2.10;;;2.00;;